createdAt,value
2018-12-29T00:00:54.222Z,-1.67
2018-12-29T00:02:23.754Z,-1.61
2018-12-29T00:03:53.414Z,-1.58
2018-12-29T00:05:24.513Z,-1.53
2018-12-29T00:06:55.197Z,-1.52
2018-12-29T00:08:25.965Z,-1.51
2018-12-29T00:09:56.243Z,-1.46
2018-12-29T00:11:26.214Z,-1.40
2018-12-29T00:12:56.666Z,-1.46
2018-12-29T00:14:27.366Z,-1.40
2018-12-29T00:15:56.911Z,-1.43
2018-12-29T00:17:26.434Z,-1.36
2018-12-29T00:18:55.978Z,-1.27
2018-12-29T00:20:33.098Z,-1.27
2018-12-29T00:22:03.711Z,-1.31
2018-12-29T00:23:33.251Z,-1.34
2018-12-29T00:25:02.966Z,-1.30
2018-12-29T00:26:32.837Z,-1.26
2018-12-29T00:28:02.529Z,-1.29
2018-12-29T00:29:32.473Z,-1.28
2018-12-29T00:31:02.255Z,-1.25
2018-12-29T00:32:31.789Z,-1.25
2018-12-29T00:34:01.337Z,-1.32
2018-12-29T00:35:31.015Z,-1.46
2018-12-29T00:37:00.541Z,-1.31
2018-12-29T00:38:30.068Z,-1.29
2018-12-29T00:39:59.612Z,-1.24
2018-12-29T00:41:29.611Z,-1.19
2018-12-29T00:42:59.285Z,-1.11
2018-12-29T00:44:28.937Z,-1.12
2018-12-29T00:45:58.490Z,-1.19
2018-12-29T00:47:28.299Z,-1.17
2018-12-29T00:48:57.872Z,-1.22
2018-12-29T00:50:27.894Z,-1.26
2018-12-29T00:51:57.417Z,-1.20
2018-12-29T00:53:27.285Z,-1.19
2018-12-29T00:54:56.939Z,-1.20
2018-12-29T00:56:26.462Z,-1.24
2018-12-29T00:57:56.139Z,-1.20
2018-12-29T00:59:25.676Z,-1.15
2018-12-29T01:00:55.480Z,-1.09
2018-12-29T01:02:25.010Z,-0.97
2018-12-29T01:03:54.531Z,-1.02
2018-12-29T01:05:24.107Z,-0.98
2018-12-29T01:06:53.624Z,-0.94
2018-12-29T01:08:26.756Z,-0.88
2018-12-29T01:09:59.830Z,-0.85
2018-12-29T01:11:29.354Z,-0.83
2018-12-29T01:12:58.863Z,-0.79
2018-12-29T01:14:28.542Z,-0.67
2018-12-29T01:15:58.406Z,-0.66
2018-12-29T01:17:28.042Z,-0.72
2018-12-29T01:18:57.595Z,-0.76
2018-12-29T01:20:27.547Z,-0.71
2018-12-29T01:21:57.348Z,-0.64
2018-12-29T01:23:26.900Z,-0.59
2018-12-29T01:24:56.749Z,-0.54
2018-12-29T01:26:26.275Z,-0.52
2018-12-29T01:27:56.876Z,-0.63
2018-12-29T01:29:26.632Z,-0.76
2018-12-29T01:31:05.908Z,-0.69
2018-12-29T01:33:15.263Z,-0.58
2018-12-29T01:34:44.785Z,-0.52
2018-12-29T01:36:14.411Z,-0.56
2018-12-29T01:37:44.036Z,-0.52
2018-12-29T01:39:13.616Z,-0.47
2018-12-29T01:40:43.136Z,-0.47
2018-12-29T01:42:12.973Z,-0.41
2018-12-29T01:43:42.493Z,-0.36
2018-12-29T01:45:17.421Z,-0.31
2018-12-29T01:46:43.439Z,-0.25
2018-12-29T01:48:13.284Z,-0.20
2018-12-29T01:49:42.787Z,-0.19
2018-12-29T01:51:12.681Z,-0.14
2018-12-29T01:52:42.570Z,-0.17
2018-12-29T01:54:12.109Z,-0.16
2018-12-29T01:55:41.642Z,-0.12
2018-12-29T01:57:11.224Z,-0.09
2018-12-29T01:58:40.830Z,-0.05
2018-12-29T02:00:10.807Z,-0.03
2018-12-29T02:01:40.383Z,-0.02
2018-12-29T02:03:09.894Z,0.03
2018-12-29T02:04:39.701Z,-0.01
2018-12-29T02:06:09.272Z,-0.10
2018-12-29T02:07:38.788Z,-0.08
2018-12-29T02:09:08.396Z,-0.05
2018-12-29T02:10:37.922Z,-0.05
2018-12-29T02:12:07.440Z,0.01
2018-12-29T02:13:36.958Z,0.05
2018-12-29T02:15:06.570Z,0.05
2018-12-29T02:16:36.090Z,-0.01
2018-12-29T02:18:05.608Z,-0.05
2018-12-29T02:19:35.104Z,-0.01
2018-12-29T02:21:04.629Z,0.02
2018-12-29T02:22:34.568Z,0.08
2018-12-29T02:24:04.105Z,0.05
2018-12-29T02:25:33.936Z,-0.03
2018-12-29T02:27:03.467Z,-0.02
2018-12-29T02:28:32.999Z,0.04
2018-12-29T02:30:02.904Z,0.10
2018-12-29T02:31:32.959Z,0.15
2018-12-29T02:33:02.705Z,0.22
2018-12-29T02:34:32.202Z,0.29
2018-12-29T02:36:01.724Z,0.24
2018-12-29T02:37:31.446Z,0.13
2018-12-29T02:39:00.969Z,0.13
2018-12-29T02:40:30.808Z,0.17
2018-12-29T02:42:00.353Z,0.16
2018-12-29T02:43:29.861Z,0.22
2018-12-29T02:44:59.384Z,0.23
2018-12-29T02:46:28.904Z,0.27
2018-12-29T02:47:58.416Z,0.30
2018-12-29T02:49:28.275Z,0.36
2018-12-29T02:50:57.894Z,0.36
2018-12-29T02:52:27.392Z,0.33
2018-12-29T02:53:56.925Z,0.35
2018-12-29T02:55:26.439Z,0.36
2018-12-29T02:56:56.031Z,0.39
2018-12-29T02:58:25.545Z,0.42
2018-12-29T02:59:55.039Z,0.36
2018-12-29T03:01:24.567Z,0.38
2018-12-29T03:02:54.072Z,0.39
2018-12-29T03:04:23.578Z,0.36
2018-12-29T03:05:53.093Z,0.40
2018-12-29T03:07:22.635Z,0.37
2018-12-29T03:08:52.138Z,0.41
2018-12-29T03:10:21.674Z,0.42
2018-12-29T03:11:51.461Z,0.45
2018-12-29T03:13:21.381Z,0.48
2018-12-29T03:14:51.055Z,0.51
2018-12-29T03:16:20.553Z,0.53
2018-12-29T03:17:50.389Z,0.55
2018-12-29T03:19:19.874Z,0.59
2018-12-29T03:20:49.387Z,0.63
2018-12-29T03:22:18.919Z,0.66
2018-12-29T03:23:48.422Z,0.61
2018-12-29T03:25:17.922Z,0.61
2018-12-29T03:26:47.455Z,0.61
2018-12-29T03:28:17.229Z,0.66
2018-12-29T03:29:46.765Z,0.65
2018-12-29T03:31:16.394Z,0.60
2018-12-29T03:32:45.909Z,0.60
2018-12-29T03:34:15.427Z,0.62
2018-12-29T03:35:44.999Z,0.62
2018-12-29T03:37:14.546Z,0.65
2018-12-29T03:38:44.299Z,0.62
2018-12-29T03:40:14.165Z,0.57
2018-12-29T03:41:43.785Z,0.56
2018-12-29T03:43:13.293Z,0.58
2018-12-29T03:44:42.811Z,0.55
2018-12-29T03:46:12.789Z,0.60
2018-12-29T03:47:42.605Z,0.66
2018-12-29T03:49:12.395Z,0.68
2018-12-29T03:50:42.324Z,0.71
2018-12-29T03:52:12.052Z,0.72
2018-12-29T03:53:53.670Z,0.71
2018-12-29T03:55:23.309Z,0.74
2018-12-29T03:56:53.292Z,0.68
2018-12-29T03:58:22.988Z,0.59
2018-12-29T03:59:52.497Z,0.59
2018-12-29T04:01:22.023Z,0.65
2018-12-29T04:02:51.550Z,0.69
2018-12-29T04:04:21.089Z,0.75
2018-12-29T04:05:50.597Z,0.75
2018-12-29T04:07:20.100Z,0.76
2018-12-29T04:09:26.716Z,0.76
2018-12-29T04:10:56.426Z,0.65
2018-12-29T04:12:28.514Z,0.63
2018-12-29T04:13:58.008Z,0.67
2018-12-29T04:16:38.958Z,0.61
2018-12-29T04:18:17.868Z,0.67
2018-12-29T04:19:47.918Z,0.65
2018-12-29T04:21:17.718Z,0.53
2018-12-29T04:22:47.421Z,0.51
2018-12-29T04:24:18.059Z,0.57
2018-12-29T04:25:47.768Z,0.57
2018-12-29T04:27:17.450Z,0.55
2018-12-29T04:31:00.597Z,0.68
2018-12-29T04:32:30.480Z,0.74
2018-12-29T04:34:00.311Z,0.79
2018-12-29T04:35:30.323Z,0.88
2018-12-29T04:37:00.187Z,0.96
2018-12-29T04:38:29.717Z,0.94
2018-12-29T04:39:59.217Z,0.95
2018-12-29T04:41:28.721Z,0.89
2018-12-29T04:42:58.231Z,0.88
2018-12-29T04:44:27.763Z,0.92
2018-12-29T04:45:57.411Z,0.91
2018-12-29T04:47:27.218Z,0.81
2018-12-29T04:48:56.900Z,0.85
2018-12-29T04:50:26.422Z,0.91
2018-12-29T04:51:56.282Z,0.96
2018-12-29T04:53:25.833Z,1.00
2018-12-29T04:54:55.330Z,1.01
2018-12-29T04:56:25.066Z,0.98
2018-12-29T04:57:54.605Z,1.02
2018-12-29T04:59:24.405Z,0.96
2018-12-29T05:00:54.208Z,0.99
2018-12-29T05:02:23.748Z,1.03
2018-12-29T05:03:53.351Z,1.07
2018-12-29T05:05:23.131Z,1.13
2018-12-29T05:06:52.636Z,1.14
2018-12-29T05:08:22.283Z,1.09
2018-12-29T05:09:52.339Z,1.00
2018-12-29T05:11:22.240Z,0.91
2018-12-29T05:12:51.742Z,1.01
2018-12-29T05:14:21.521Z,1.13
2018-12-29T05:15:51.027Z,1.13
2018-12-29T05:17:20.870Z,1.14
2018-12-29T05:18:50.813Z,1.16
2018-12-29T05:20:20.667Z,1.10
2018-12-29T05:21:50.475Z,0.98
2018-12-29T05:23:20.010Z,0.96
2018-12-29T05:24:49.548Z,1.00
2018-12-29T05:26:19.050Z,1.11
2018-12-29T05:27:48.851Z,1.15
2018-12-29T05:29:25.917Z,1.09
2018-12-29T05:30:55.440Z,1.13
2018-12-29T05:32:25.286Z,1.19
2018-12-29T05:33:55.381Z,1.23
2018-12-29T05:35:24.912Z,1.30
2018-12-29T05:36:54.606Z,1.36
2018-12-29T05:38:24.297Z,1.33
2018-12-29T05:39:53.824Z,1.25
2018-12-29T05:41:23.494Z,1.32
2018-12-29T05:42:53.018Z,1.40
2018-12-29T05:44:22.770Z,1.47
2018-12-29T05:45:52.943Z,1.52
2018-12-29T05:47:22.670Z,1.56
2018-12-29T05:48:52.453Z,1.55
2018-12-29T05:50:22.031Z,1.55
2018-12-29T05:51:51.644Z,1.60
2018-12-29T05:53:21.149Z,1.59
2018-12-29T05:54:51.309Z,1.62
2018-12-29T05:56:21.173Z,1.52
2018-12-29T05:57:51.034Z,1.51
2018-12-29T05:59:20.565Z,1.56
2018-12-29T06:00:50.160Z,1.54
2018-12-29T06:02:20.084Z,1.52
2018-12-29T06:03:49.632Z,1.46
2018-12-29T06:05:19.403Z,1.46
2018-12-29T06:06:49.294Z,1.42
2018-12-29T06:08:18.858Z,1.40
2018-12-29T06:09:48.413Z,1.46
2018-12-29T06:11:18.221Z,1.55
2018-12-29T06:12:47.709Z,1.59
2018-12-29T06:14:17.599Z,1.57
2018-12-29T06:15:47.104Z,1.51
2018-12-29T06:17:47.429Z,1.53
2018-12-29T06:19:16.920Z,1.49
2018-12-29T06:20:46.434Z,1.45
2018-12-29T06:22:15.940Z,1.50
2018-12-29T06:23:45.871Z,1.52
2018-12-29T06:25:15.565Z,1.51
2018-12-29T06:26:45.087Z,1.54
2018-12-29T06:28:14.808Z,1.62
2018-12-29T06:29:44.369Z,1.68
2018-12-29T06:31:13.900Z,1.69
2018-12-29T06:32:43.436Z,1.70
2018-12-29T06:34:12.931Z,1.70
2018-12-29T06:35:42.468Z,1.69
2018-12-29T06:37:11.999Z,1.71
2018-12-29T06:38:41.533Z,1.65
2018-12-29T06:40:11.464Z,1.65
2018-12-29T06:41:40.966Z,1.64
2018-12-29T06:43:10.479Z,1.63
2018-12-29T06:44:40.008Z,1.60
2018-12-29T06:48:53.966Z,1.62
2018-12-29T06:50:23.455Z,1.63
2018-12-29T06:51:53.175Z,1.64
2018-12-29T06:53:22.690Z,1.63
2018-12-29T06:54:52.449Z,1.58
2018-12-29T06:56:21.972Z,1.64
2018-12-29T06:57:51.686Z,1.69
2018-12-29T06:59:21.338Z,1.73
2018-12-29T07:00:51.212Z,1.79
2018-12-29T07:02:20.915Z,1.81
2018-12-29T07:03:50.430Z,1.86
2018-12-29T07:05:19.934Z,1.87
2018-12-29T07:07:01.523Z,1.88
2018-12-29T07:08:31.090Z,1.82
2018-12-29T07:10:00.599Z,1.71
2018-12-29T07:11:30.127Z,1.57
2018-12-29T07:12:59.656Z,1.58
2018-12-29T07:14:29.164Z,1.57
2018-12-29T07:15:58.688Z,1.51
2018-12-29T07:17:28.749Z,1.50
2018-12-29T07:18:58.321Z,1.58
2018-12-29T07:20:28.238Z,1.70
2018-12-29T07:21:57.758Z,1.76
2018-12-29T07:23:27.813Z,1.81
2018-12-29T07:24:57.460Z,1.86
2018-12-29T07:26:28.419Z,1.85
2018-12-29T07:27:57.996Z,1.87
2018-12-29T07:29:28.349Z,1.91
2018-12-29T07:30:58.112Z,1.94
2018-12-29T07:32:28.326Z,1.82
2018-12-29T07:33:58.299Z,1.74
2018-12-29T07:35:29.417Z,1.80
2018-12-29T07:36:58.922Z,1.91
2018-12-29T07:38:28.464Z,1.84
2018-12-29T07:39:57.999Z,1.75
2018-12-29T07:41:27.932Z,1.60
2018-12-29T07:42:57.617Z,1.64
2018-12-29T07:44:42.478Z,1.79
2018-12-29T07:46:14.901Z,1.83
2018-12-29T07:47:44.440Z,1.73
2018-12-29T07:49:14.360Z,1.60
2018-12-29T07:50:43.925Z,1.47
2018-12-29T07:52:13.593Z,1.45
2018-12-29T07:53:43.848Z,1.58
2018-12-29T07:55:17.942Z,1.66
2018-12-29T07:56:50.866Z,1.72
2018-12-29T07:58:21.116Z,1.80
2018-12-29T07:59:58.948Z,1.82
2018-12-29T08:01:29.723Z,1.83
2018-12-29T08:03:00.743Z,1.90
2018-12-29T08:04:33.793Z,1.98
2018-12-29T08:06:07.672Z,2.05
2018-12-29T08:07:42.375Z,2.14
2018-12-29T08:09:14.159Z,2.15
2018-12-29T08:11:08.076Z,2.10
2018-12-29T08:12:40.923Z,2.04
2018-12-29T08:14:15.161Z,2.10
2018-12-29T08:15:45.389Z,2.19
2018-12-29T08:17:20.374Z,2.16
2018-12-29T08:18:57.194Z,2.19
2018-12-29T08:20:32.632Z,2.21
2018-12-29T08:22:02.772Z,2.23
2018-12-29T08:23:45.783Z,2.30
2018-12-29T08:25:22.905Z,2.36
2018-12-29T08:27:17.397Z,2.38
2018-12-29T08:31:10.173Z,2.45
2018-12-29T08:32:45.716Z,2.34
2018-12-29T08:34:17.123Z,2.30
2018-12-29T08:35:47.459Z,2.29
2018-12-29T08:37:17.480Z,2.32
2018-12-29T08:38:50.718Z,2.38
2018-12-29T08:40:21.258Z,2.27
2018-12-29T08:41:52.008Z,2.33
2018-12-29T08:43:24.269Z,2.22
2018-12-29T08:44:57.295Z,2.22
2018-12-29T08:46:27.544Z,2.20
2018-12-29T08:48:04.611Z,2.27
2018-12-29T08:49:38.506Z,2.35
2018-12-29T08:51:11.845Z,2.33
2018-12-29T08:52:45.738Z,2.27
2018-12-29T08:54:22.457Z,2.33
2018-12-29T08:55:53.435Z,2.45
2018-12-29T08:57:26.477Z,2.55
2018-12-29T08:59:00.520Z,2.57
2018-12-29T09:00:31.110Z,2.61
2018-12-29T09:02:04.336Z,2.68
2018-12-29T09:03:38.786Z,2.64
2018-12-29T09:05:12.844Z,2.66
2018-12-29T09:06:44.238Z,2.70
2018-12-29T09:08:19.589Z,2.71
2018-12-29T09:09:49.421Z,2.71
2018-12-29T09:11:23.686Z,2.69
2018-12-29T09:12:53.671Z,2.73
2018-12-29T09:14:23.892Z,2.81
2018-12-29T09:15:53.969Z,2.83
2018-12-29T09:17:23.748Z,2.82
2018-12-29T09:18:54.465Z,2.85
2018-12-29T09:20:24.280Z,2.79
2018-12-29T09:21:54.180Z,2.76
2018-12-29T09:23:24.089Z,2.84
2018-12-29T09:24:54.063Z,2.85
2018-12-29T09:26:24.543Z,2.91
2018-12-29T09:27:54.396Z,2.93
2018-12-29T09:29:24.595Z,3.04
2018-12-29T09:30:54.793Z,3.11
2018-12-29T09:32:24.963Z,3.18
2018-12-29T09:33:54.705Z,3.19
2018-12-29T09:35:24.610Z,3.09
2018-12-29T09:36:54.487Z,3.18
2018-12-29T09:38:24.417Z,3.17
2018-12-29T09:39:54.484Z,3.14
2018-12-29T09:41:25.374Z,3.18
2018-12-29T09:42:55.347Z,3.32
2018-12-29T09:44:25.298Z,3.39
2018-12-29T09:45:55.278Z,3.49
2018-12-29T09:47:25.241Z,3.55
2018-12-29T09:48:55.074Z,3.66
2018-12-29T09:50:24.952Z,3.79
2018-12-29T09:51:57.806Z,3.86
2018-12-29T09:53:27.901Z,3.91
2018-12-29T09:54:58.073Z,4.10
2018-12-29T09:56:27.987Z,4.16
2018-12-29T09:57:57.870Z,4.22
2018-12-29T09:59:48.964Z,4.31
2018-12-29T10:01:18.741Z,4.40
2018-12-29T10:02:48.621Z,4.51
2018-12-29T10:04:18.423Z,4.59
2018-12-29T10:05:48.795Z,4.66
2018-12-29T10:07:18.707Z,4.69
2018-12-29T10:08:51.997Z,4.73
2018-12-29T10:10:21.703Z,4.78
2018-12-29T10:11:51.443Z,4.84
2018-12-29T10:13:21.281Z,4.79
2018-12-29T10:14:51.132Z,4.70
2018-12-29T10:16:21.282Z,4.45
2018-12-29T10:17:51.360Z,4.39
2018-12-29T10:19:21.417Z,4.46
2018-12-29T10:20:51.399Z,4.48
2018-12-29T10:22:21.619Z,4.52
2018-12-29T10:23:51.340Z,4.59
2018-12-29T10:25:21.921Z,4.46
2018-12-29T10:26:52.030Z,4.37
2018-12-29T10:28:22.185Z,4.43
2018-12-29T10:30:23.068Z,4.50
2018-12-29T10:31:52.911Z,4.61
2018-12-29T10:33:23.171Z,4.65
2018-12-29T10:34:52.840Z,4.71
2018-12-29T10:36:22.671Z,4.71
2018-12-29T10:37:52.345Z,4.77
2018-12-29T10:39:22.561Z,4.71
2018-12-29T10:40:52.482Z,4.69
2018-12-29T10:42:22.808Z,4.66
2018-12-29T10:43:52.835Z,4.66
2018-12-29T10:45:22.601Z,4.56
2018-12-29T10:46:52.421Z,4.52
2018-12-29T10:48:22.026Z,4.52
2018-12-29T10:49:51.847Z,4.55
2018-12-29T10:51:21.747Z,4.57
2018-12-29T10:52:51.520Z,4.57
2018-12-29T10:54:21.933Z,4.65
2018-12-29T10:55:52.168Z,4.72
2018-12-29T10:57:22.060Z,4.76
2018-12-29T10:59:01.149Z,4.82
2018-12-29T11:02:19.263Z,4.90
2018-12-29T11:03:49.134Z,4.85
2018-12-29T11:05:18.857Z,4.87
2018-12-29T11:06:49.242Z,4.87
2018-12-29T11:08:18.965Z,4.81
2018-12-29T11:09:48.539Z,4.78
2018-12-29T11:11:18.505Z,4.71
2018-12-29T11:12:48.431Z,4.56
2018-12-29T11:14:18.857Z,4.47
2018-12-29T11:15:48.710Z,4.53
2018-12-29T11:17:18.747Z,4.62
2018-12-29T11:18:49.191Z,4.66
2018-12-29T11:20:19.470Z,4.58
2018-12-29T11:21:55.997Z,4.66
2018-12-29T11:23:26.270Z,4.77
2018-12-29T11:24:57.024Z,4.84
2018-12-29T11:26:27.027Z,4.99
2018-12-29T11:27:57.161Z,5.08
2018-12-29T11:29:27.214Z,5.14
2018-12-29T11:31:01.758Z,5.10
2018-12-29T11:32:32.226Z,5.17
2018-12-29T11:34:05.548Z,5.17
2018-12-29T11:35:36.377Z,5.15
2018-12-29T11:37:06.379Z,5.10
2018-12-29T11:38:36.889Z,4.96
2018-12-29T11:40:07.899Z,4.78
2018-12-29T11:41:37.721Z,4.71
2018-12-29T11:43:07.960Z,4.63
2018-12-29T11:44:38.074Z,4.48
2018-12-29T11:46:10.356Z,4.43
2018-12-29T11:47:40.745Z,4.46
2018-12-29T11:49:17.866Z,4.46
2018-12-29T11:50:43.355Z,4.51
2018-12-29T11:52:13.105Z,4.54
2018-12-29T11:53:42.801Z,4.61
2018-12-29T11:55:12.626Z,4.71
2018-12-29T11:56:43.049Z,4.76
2018-12-29T11:58:13.259Z,4.73
2018-12-29T11:59:43.273Z,4.75
2018-12-29T12:01:14.791Z,4.74
2018-12-29T12:02:44.559Z,4.78
2018-12-29T12:04:14.167Z,4.80
2018-12-29T12:05:44.022Z,4.82
2018-12-29T12:07:13.999Z,4.89
2018-12-29T12:08:43.729Z,4.83
2018-12-29T12:10:13.644Z,4.73
2018-12-29T12:11:43.657Z,4.79
2018-12-29T12:13:13.302Z,4.89
2018-12-29T12:14:42.984Z,4.92
2018-12-29T12:16:12.695Z,4.96
2018-12-29T12:17:42.628Z,5.01
2018-12-29T12:19:12.313Z,5.02
2018-12-29T12:20:41.975Z,5.03
2018-12-29T12:22:11.764Z,4.95
2018-12-29T12:23:41.477Z,5.01
2018-12-29T12:25:11.571Z,4.89
2018-12-29T12:26:41.374Z,4.93
2018-12-29T12:28:11.322Z,4.96
2018-12-29T12:29:41.447Z,4.94
2018-12-29T12:31:11.521Z,4.94
2018-12-29T12:32:41.243Z,4.85
2018-12-29T12:34:10.825Z,4.81
2018-12-29T12:35:41.634Z,4.92
2018-12-29T12:37:11.835Z,5.09
2018-12-29T12:38:41.795Z,5.09
2018-12-29T12:40:11.388Z,5.09
2018-12-29T12:41:41.149Z,5.15
2018-12-29T12:43:10.887Z,5.25
2018-12-29T12:44:41.206Z,5.32
2018-12-29T12:46:11.242Z,5.37
2018-12-29T12:47:40.984Z,5.34
2018-12-29T12:49:10.630Z,5.27
2018-12-29T12:50:40.239Z,5.06
2018-12-29T12:52:09.862Z,5.07
2018-12-29T12:53:39.873Z,5.06
2018-12-29T12:55:09.617Z,5.17
2018-12-29T12:56:39.210Z,5.15
2018-12-29T12:58:09.126Z,5.23
2018-12-29T12:59:39.110Z,5.32
2018-12-29T13:01:08.700Z,5.20
2018-12-29T13:02:38.536Z,5.21
2018-12-29T13:04:08.159Z,5.20
2018-12-29T13:05:37.998Z,5.26
2018-12-29T13:07:08.043Z,5.26
2018-12-29T13:08:37.664Z,5.35
2018-12-29T13:10:08.577Z,5.44
2018-12-29T13:11:38.304Z,5.39
2018-12-29T13:13:08.700Z,5.46
2018-12-29T13:14:38.512Z,5.56
2018-12-29T13:16:09.476Z,5.65
2018-12-29T13:17:39.388Z,5.69
2018-12-29T13:19:09.045Z,5.74
2018-12-29T13:20:38.926Z,5.80
2018-12-29T13:22:09.117Z,5.84
2018-12-29T13:23:38.843Z,5.88
2018-12-29T13:25:08.986Z,5.88
2018-12-29T13:26:38.632Z,5.89
2018-12-29T13:28:08.602Z,5.88
2018-12-29T13:29:38.613Z,5.64
2018-12-29T13:31:08.610Z,5.39
2018-12-29T13:32:38.261Z,5.18
2018-12-29T13:34:08.946Z,5.11
2018-12-29T13:35:38.563Z,5.13
2018-12-29T13:37:08.698Z,5.01
2018-12-29T13:38:38.673Z,4.83
2018-12-29T13:40:08.803Z,4.76
2018-12-29T13:41:38.467Z,4.58
2018-12-29T13:43:08.596Z,4.45
2018-12-29T13:44:38.399Z,4.31
2018-12-29T13:46:08.752Z,4.18
2018-12-29T13:47:38.566Z,4.27
2018-12-29T13:49:08.167Z,4.34
2018-12-29T13:50:39.434Z,4.38
2018-12-29T13:52:09.112Z,4.48
2018-12-29T13:53:39.180Z,4.50
2018-12-29T13:55:08.973Z,4.52
2018-12-29T13:56:38.859Z,4.38
2018-12-29T13:58:08.460Z,4.34
2018-12-29T13:59:38.433Z,4.35
2018-12-29T14:01:08.264Z,4.29
2018-12-29T14:02:38.036Z,4.13
2018-12-29T14:04:07.887Z,4.19
2018-12-29T14:05:37.461Z,4.25
2018-12-29T14:07:07.119Z,4.34
2018-12-29T14:08:36.849Z,4.41
2018-12-29T14:10:06.706Z,4.46
2018-12-29T14:11:36.401Z,4.39
2018-12-29T14:13:06.126Z,4.39
2018-12-29T14:14:36.114Z,4.40
2018-12-29T14:16:05.639Z,4.43
2018-12-29T14:17:35.236Z,4.38
2018-12-29T14:19:05.742Z,4.34
2018-12-29T14:20:35.319Z,4.34
2018-12-29T14:22:05.126Z,4.32
2018-12-29T14:23:36.288Z,4.29
2018-12-29T14:25:05.947Z,4.20
2018-12-29T14:26:36.152Z,4.10
2018-12-29T14:28:06.524Z,3.99
2018-12-29T14:29:36.588Z,3.92
2018-12-29T14:31:06.168Z,3.83
2018-12-29T14:32:36.384Z,3.70
2018-12-29T14:34:06.451Z,3.57
2018-12-29T14:40:55.476Z,3.50
2018-12-29T14:42:25.792Z,3.29
2018-12-29T14:43:55.397Z,3.20
2018-12-29T14:45:25.631Z,3.27
2018-12-29T14:46:55.998Z,3.27
2018-12-29T14:48:25.908Z,3.34
2018-12-29T14:49:55.572Z,3.32
2018-12-29T14:51:25.236Z,3.29
2018-12-29T14:52:55.257Z,3.25
2018-12-29T14:54:25.215Z,3.18
2018-12-29T14:55:54.762Z,3.08
2018-12-29T14:57:24.630Z,3.10
2018-12-29T14:58:54.223Z,3.18
2018-12-29T15:00:24.149Z,3.27
2018-12-29T15:01:53.774Z,3.29
2018-12-29T15:03:25.461Z,3.37
2018-12-29T15:04:55.022Z,3.44
2018-12-29T15:06:25.729Z,3.45
2018-12-29T15:07:55.780Z,3.46
2018-12-29T15:09:25.576Z,3.49
2018-12-29T15:10:55.432Z,3.50
2018-12-29T15:12:25.560Z,3.52
2018-12-29T15:13:55.464Z,3.50
2018-12-29T15:15:25.550Z,3.55
2018-12-29T15:16:55.600Z,3.50
2018-12-29T15:18:25.208Z,3.36
2018-12-29T15:19:55.156Z,3.39
2018-12-29T15:21:24.838Z,3.44
2018-12-29T15:22:54.961Z,3.36
2018-12-29T15:24:24.895Z,3.25
2018-12-29T15:25:54.392Z,3.13
2018-12-29T15:27:23.917Z,3.11
2018-12-29T15:28:53.515Z,3.14
2018-12-29T15:30:23.443Z,3.20
2018-12-29T15:31:52.970Z,3.23
2018-12-29T15:33:23.320Z,3.24
2018-12-29T15:34:53.162Z,3.25
2018-12-29T15:36:22.700Z,3.33
2018-12-29T15:37:53.545Z,3.34
2018-12-29T15:39:23.601Z,3.31
2018-12-29T15:40:53.918Z,3.24
2018-12-29T15:42:24.494Z,3.21
2018-12-29T15:43:54.100Z,3.14
2018-12-29T15:45:23.648Z,3.17
2018-12-29T15:46:53.727Z,3.16
2018-12-29T15:48:23.323Z,3.12
2018-12-29T15:49:53.034Z,3.14
2018-12-29T15:51:22.576Z,3.13
2018-12-29T15:52:52.123Z,3.01
2018-12-29T15:54:22.171Z,2.95
2018-12-29T15:55:52.073Z,2.87
2018-12-29T15:57:22.017Z,2.84
2018-12-29T15:59:01.352Z,2.89
2018-12-29T16:00:31.002Z,2.88
2018-12-29T16:02:01.331Z,2.70
2018-12-29T16:03:31.495Z,2.67
2018-12-29T16:05:01.391Z,2.64
2018-12-29T16:06:31.519Z,2.66
2018-12-29T16:08:01.424Z,2.69
2018-12-29T16:09:31.634Z,2.72
2018-12-29T16:11:01.162Z,2.77
2018-12-29T16:12:30.793Z,2.69
2018-12-29T16:14:00.855Z,2.67
2018-12-29T16:15:30.757Z,2.72
2018-12-29T16:17:01.159Z,2.70
2018-12-29T16:18:30.952Z,2.74
2018-12-29T16:20:00.563Z,2.80
2018-12-29T16:21:30.223Z,2.71
2018-12-29T16:23:00.370Z,2.77
2018-12-29T16:24:30.293Z,2.83
2018-12-29T16:25:59.826Z,2.82
2018-12-29T16:27:29.692Z,2.86
2018-12-29T16:28:59.610Z,2.99
2018-12-29T16:30:29.273Z,3.00
2018-12-29T16:31:59.181Z,2.96
2018-12-29T16:33:28.964Z,3.03
2018-12-29T16:34:58.969Z,3.06
2018-12-29T16:36:28.562Z,2.96
2018-12-29T16:37:58.168Z,2.96
2018-12-29T16:39:28.169Z,2.97
2018-12-29T16:40:58.397Z,3.01
2018-12-29T16:42:28.488Z,3.10
2018-12-29T16:43:58.669Z,3.10
2018-12-29T16:45:28.703Z,3.33
2018-12-29T16:46:58.357Z,3.41
2018-12-29T16:48:28.470Z,3.42
2018-12-29T16:49:58.387Z,3.37
2018-12-29T16:51:28.082Z,3.45
2018-12-29T16:52:57.654Z,3.45
2018-12-29T16:54:27.230Z,3.42
2018-12-29T16:55:57.314Z,3.38
2018-12-29T16:57:27.307Z,3.37
2018-12-29T16:58:56.871Z,3.45
2018-12-29T17:00:53.022Z,3.42
2018-12-29T17:02:22.675Z,3.45
2018-12-29T17:03:52.461Z,3.42
2018-12-29T17:05:22.093Z,3.42
2018-12-29T17:06:52.093Z,3.50
2018-12-29T17:08:22.160Z,3.50
2018-12-29T17:09:52.951Z,3.45
2018-12-29T17:11:22.613Z,3.41
2018-12-29T17:12:53.309Z,3.46
2018-12-29T17:14:23.409Z,3.52
2018-12-29T17:15:52.952Z,3.42
2018-12-29T17:17:22.499Z,3.51
2018-12-29T17:18:52.091Z,3.64
2018-12-29T17:20:21.681Z,3.58
2018-12-29T17:21:51.495Z,3.62
2018-12-29T17:23:21.117Z,3.59
2018-12-29T17:24:50.817Z,3.51
2018-12-29T17:26:20.815Z,3.52
2018-12-29T17:27:50.446Z,3.50
2018-12-29T17:29:21.890Z,3.54
2018-12-29T17:30:52.154Z,3.57
2018-12-29T17:32:22.041Z,3.62
2018-12-29T17:33:51.901Z,3.56
2018-12-29T17:35:21.710Z,3.46
2018-12-29T17:36:51.368Z,3.44
2018-12-29T17:38:20.907Z,3.35
2018-12-29T17:39:50.486Z,3.32
2018-12-29T17:41:20.375Z,3.34
2018-12-29T17:42:50.188Z,3.31
2018-12-29T17:44:19.840Z,3.29
2018-12-29T17:48:37.289Z,3.24
2018-12-29T17:50:07.487Z,3.23
2018-12-29T17:51:37.392Z,3.23
2018-12-29T17:53:06.973Z,3.26
2018-12-29T17:54:36.522Z,3.22
2018-12-29T17:56:06.109Z,3.16
2018-12-29T17:57:36.160Z,3.19
2018-12-29T17:59:05.710Z,3.18
2018-12-29T18:00:35.700Z,3.15
2018-12-29T18:02:05.670Z,3.10
2018-12-29T18:03:36.234Z,3.11
2018-12-29T18:05:06.592Z,3.01
2018-12-29T18:06:54.695Z,3.02
2018-12-29T18:08:24.823Z,3.01
2018-12-29T18:10:49.717Z,3.05
2018-12-29T18:12:19.670Z,3.09
2018-12-29T18:13:49.408Z,3.06
2018-12-29T18:15:21.143Z,3.10
2018-12-29T18:16:51.138Z,3.20
2018-12-29T18:18:21.036Z,3.17
2018-12-29T18:19:50.641Z,3.15
2018-12-29T18:21:40.845Z,3.24
2018-12-29T18:23:10.675Z,3.27
2018-12-29T18:24:40.258Z,3.29
2018-12-29T18:26:09.990Z,3.28
2018-12-29T18:27:39.818Z,3.31
2018-12-29T18:29:09.630Z,3.28
2018-12-29T18:30:40.201Z,3.11
2018-12-29T18:32:10.054Z,3.06
2018-12-29T18:33:40.519Z,3.01
2018-12-29T18:35:10.534Z,2.93
2018-12-29T18:36:40.247Z,2.97
2018-12-29T18:38:10.676Z,3.08
2018-12-29T18:39:40.471Z,3.05
2018-12-29T18:41:10.299Z,2.90
2018-12-29T18:42:40.245Z,2.86
2018-12-29T18:44:10.509Z,2.84
2018-12-29T18:45:40.505Z,2.81
2018-12-29T18:47:11.597Z,2.83
2018-12-29T18:48:41.214Z,2.91
2018-12-29T18:50:13.086Z,2.86
2018-12-29T18:51:44.217Z,2.85
2018-12-29T18:53:13.803Z,2.76
2018-12-29T18:54:43.365Z,2.76
2018-12-29T18:56:13.223Z,2.85
2018-12-29T18:57:43.336Z,2.86
2018-12-29T18:59:13.025Z,2.89
2018-12-29T19:00:43.169Z,2.83
2018-12-29T19:02:13.256Z,2.86
2018-12-29T19:03:43.680Z,2.87
2018-12-29T19:05:13.458Z,2.98
2018-12-29T19:06:43.690Z,2.93
2018-12-29T19:08:14.007Z,2.89
2018-12-29T19:09:43.552Z,2.90
2018-12-29T19:11:13.111Z,2.96
2018-12-29T19:12:42.681Z,2.97
2018-12-29T19:14:12.894Z,2.95
2018-12-29T19:15:43.887Z,3.00
2018-12-29T19:17:13.597Z,3.06
2018-12-29T19:18:43.648Z,2.99
2018-12-29T19:20:14.284Z,3.00
2018-12-29T19:21:44.219Z,2.98
2018-12-29T19:23:13.741Z,2.97
2018-12-29T19:24:43.642Z,3.01
2018-12-29T19:26:13.301Z,3.00
2018-12-29T19:27:43.530Z,3.05
2018-12-29T19:29:13.925Z,3.05
2018-12-29T19:30:43.488Z,3.02
2018-12-29T19:32:14.333Z,3.06
2018-12-29T19:33:44.816Z,3.17
2018-12-29T19:35:14.834Z,3.19
2018-12-29T19:36:44.416Z,3.22
2018-12-29T19:38:14.346Z,3.19
2018-12-29T19:39:44.244Z,3.19
2018-12-29T19:41:13.986Z,3.27
2018-12-29T19:42:43.918Z,3.31
2018-12-29T19:44:13.575Z,3.32
2018-12-29T19:45:44.023Z,3.35
2018-12-29T19:47:13.928Z,3.38
2018-12-29T19:49:21.724Z,3.44
2018-12-29T19:50:51.938Z,3.44
2018-12-29T19:52:22.149Z,3.35
2018-12-29T19:53:51.651Z,3.35
2018-12-29T19:55:21.676Z,3.40
2018-12-29T19:56:51.802Z,3.36
2018-12-29T19:58:21.819Z,3.27
2018-12-29T19:59:51.512Z,3.38
2018-12-29T20:01:21.741Z,3.45
2018-12-29T20:02:51.702Z,3.51
2018-12-29T20:04:21.866Z,3.57
2018-12-29T20:05:51.562Z,3.57
2018-12-29T20:07:21.794Z,3.52
2018-12-29T20:08:51.856Z,3.45
2018-12-29T20:10:21.350Z,3.51
2018-12-29T20:11:51.527Z,3.52
2018-12-29T20:13:21.577Z,3.58
2018-12-29T20:15:09.828Z,3.51
2018-12-29T20:16:40.060Z,3.55
2018-12-29T20:18:09.548Z,3.65
2018-12-29T20:19:39.728Z,3.53
2018-12-29T20:21:09.481Z,3.52